Terminal Aerodrome Forecast
Issued by NWS

Home | Current Version | Previous Version | Text Only | Print | Product List | Glossary On
Versions: 1 2 3 4 5 6 7 8 9 10 11 12 13 14 15 16
613
FTUS43 KFGF 061740
TAFTVF
TAF
KTVF 061740Z 0618/0718 19012G20KT P6SM SCT070 BKN120
     FM062200 20015G25KT P6SM SCT040 BKN080
      TEMPO 0622/0624 P6SM -SHRA BKN040
     FM070700 24018G28KT P6SM BKN025 OVC050
     FM071000 28022G29KT 2SM -SN OVC012
     FM071300 30025G40KT 1/2SM SN BKN008 OVC010=

USA.gov is the U.S. government's official web portal to all federal, state and local government web resources and services.